sensor_id;sensor_type;location;lat;lon;timestamp;P1;durP1;ratioP1;P2;durP2;ratioP2
4174;SDS011;2101;48.290;14.382;2022-10-16T00:02:02;18.13;;;3.70;;
4174;SDS011;2101;48.290;14.382;2022-10-16T00:04:28;18.13;;;3.27;;
4174;SDS011;2101;48.290;14.382;2022-10-16T00:06:54;27.30;;;3.83;;
4174;SDS011;2101;48.290;14.382;2022-10-16T00:09:20;16.07;;;2.77;;
4174;SDS011;2101;48.290;14.382;2022-10-16T00:11:46;19.40;;;3.70;;
4174;SDS011;2101;48.290;14.382;2022-10-16T00:14:13;21.43;;;3.10;;
4174;SDS011;2101;48.290;14.382;2022-10-16T00:16:40;18.90;;;3.40;;
4174;SDS011;2101;48.290;14.382;2022-10-16T00:19:06;19.37;;;3.57;;
4174;SDS011;2101;48.290;14.382;2022-10-16T00:21:33;17.87;;;3.23;;
4174;SDS011;2101;48.290;14.382;2022-10-16T00:24:00;20.93;;;3.60;;
4174;SDS011;2101;48.290;14.382;2022-10-16T00:26:29;25.13;;;3.90;;
4174;SDS011;2101;48.290;14.382;2022-10-16T00:28:55;19.30;;;3.60;;
4174;SDS011;2101;48.290;14.382;2022-10-16T00:31:21;18.30;;;3.20;;
4174;SDS011;2101;48.290;14.382;2022-10-16T00:33:48;16.87;;;3.00;;
4174;SDS011;2101;48.290;14.382;2022-10-16T00:36:16;23.07;;;3.60;;
4174;SDS011;2101;48.290;14.382;2022-10-16T00:38:43;19.13;;;3.27;;
4174;SDS011;2101;48.290;14.382;2022-10-16T00:41:10;16.87;;;3.03;;
4174;SDS011;2101;48.290;14.382;2022-10-16T00:46:19;18.97;;;3.57;;
4174;SDS011;2101;48.290;14.382;2022-10-16T00:51:23;15.90;;;2.63;;
4174;SDS011;2101;48.290;14.382;2022-10-16T00:53:51;17.47;;;3.13;;
4174;SDS011;2101;48.290;14.382;2022-10-16T00:56:17;16.17;;;2.97;;
4174;SDS011;2101;48.290;14.382;2022-10-16T00:58:44;18.20;;;3.17;;
4174;SDS011;2101;48.290;14.382;2022-10-16T01:01:10;21.03;;;3.30;;
4174;SDS011;2101;48.290;14.382;2022-10-16T01:03:36;17.30;;;3.00;;
4174;SDS011;2101;48.290;14.382;2022-10-16T01:08:39;21.40;;;3.33;;
4174;SDS011;2101;48.290;14.382;2022-10-16T01:11:16;16.97;;;3.03;;
4174;SDS011;2101;48.290;14.382;2022-10-16T01:13:45;15.67;;;2.57;;
4174;SDS011;2101;48.290;14.382;2022-10-16T01:16:17;17.30;;;3.20;;
4174;SDS011;2101;48.290;14.382;2022-10-16T01:18:50;19.13;;;3.47;;
4174;SDS011;2101;48.290;14.382;2022-10-16T01:21:22;18.03;;;3.10;;
4174;SDS011;2101;48.290;14.382;2022-10-16T01:28:46;23.43;;;2.97;;
4174;SDS011;2101;48.290;14.382;2022-10-16T01:31:16;16.30;;;3.10;;
4174;SDS011;2101;48.290;14.382;2022-10-16T01:33:45;14.93;;;2.33;;
4174;SDS011;2101;48.290;14.382;2022-10-16T01:36:13;26.47;;;2.80;;
4174;SDS011;2101;48.290;14.382;2022-10-16T01:38:40;16.13;;;2.80;;
4174;SDS011;2101;48.290;14.382;2022-10-16T01:41:11;15.00;;;2.43;;
4174;SDS011;2101;48.290;14.382;2022-10-16T01:43:49;16.43;;;2.40;;
4174;SDS011;2101;48.290;14.382;2022-10-16T01:46:16;17.83;;;2.10;;
4174;SDS011;2101;48.290;14.382;2022-10-16T01:48:44;15.30;;;2.50;;
4174;SDS011;2101;48.290;14.382;2022-10-16T01:51:14;15.60;;;2.50;;
4174;SDS011;2101;48.290;14.382;2022-10-16T01:53:41;18.13;;;2.63;;
4174;SDS011;2101;48.290;14.382;2022-10-16T01:56:09;18.80;;;2.40;;
4174;SDS011;2101;48.290;14.382;2022-10-16T01:58:37;15.70;;;2.70;;
4174;SDS011;2101;48.290;14.382;2022-10-16T02:01:06;17.07;;;2.30;;
4174;SDS011;2101;48.290;14.382;2022-10-16T02:03:35;17.10;;;2.50;;
4174;SDS011;2101;48.290;14.382;2022-10-16T02:06:02;20.07;;;2.43;;
4174;SDS011;2101;48.290;14.382;2022-10-16T02:08:29;17.87;;;2.53;;
4174;SDS011;2101;48.290;14.382;2022-10-16T02:10:56;16.57;;;2.87;;
4174;SDS011;2101;48.290;14.382;2022-10-16T02:13:27;15.97;;;2.50;;
4174;SDS011;2101;48.290;14.382;2022-10-16T02:15:55;15.77;;;2.20;;
4174;SDS011;2101;48.290;14.382;2022-10-16T02:18:21;15.60;;;2.20;;
4174;SDS011;2101;48.290;14.382;2022-10-16T02:20:51;18.90;;;2.70;;
4174;SDS011;2101;48.290;14.382;2022-10-16T02:23:28;15.33;;;2.60;;
4174;SDS011;2101;48.290;14.382;2022-10-16T02:25:55;18.80;;;2.77;;
4174;SDS011;2101;48.290;14.382;2022-10-16T02:28:25;23.37;;;3.17;;
4174;SDS011;2101;48.290;14.382;2022-10-16T02:31:02;17.03;;;3.30;;
4174;SDS011;2101;48.290;14.382;2022-10-16T02:33:29;21.73;;;3.00;;
4174;SDS011;2101;48.290;14.382;2022-10-16T02:35:57;19.03;;;3.50;;
4174;SDS011;2101;48.290;14.382;2022-10-16T02:38:23;16.17;;;3.07;;
4174;SDS011;2101;48.290;14.382;2022-10-16T02:40:50;16.43;;;2.70;;
4174;SDS011;2101;48.290;14.382;2022-10-16T02:43:16;17.57;;;2.80;;
4174;SDS011;2101;48.290;14.382;2022-10-16T02:45:42;25.20;;;3.27;;
4174;SDS011;2101;48.290;14.382;2022-10-16T02:48:09;16.30;;;2.67;;
4174;SDS011;2101;48.290;14.382;2022-10-16T02:50:35;17.40;;;3.07;;
4174;SDS011;2101;48.290;14.382;2022-10-16T02:53:01;21.00;;;3.00;;
4174;SDS011;2101;48.290;14.382;2022-10-16T02:55:27;20.40;;;3.13;;
4174;SDS011;2101;48.290;14.382;2022-10-16T02:57:53;20.67;;;2.90;;
4174;SDS011;2101;48.290;14.382;2022-10-16T03:00:20;23.50;;;3.80;;
4174;SDS011;2101;48.290;14.382;2022-10-16T03:02:46;19.50;;;3.37;;
4174;SDS011;2101;48.290;14.382;2022-10-16T03:05:12;17.90;;;2.90;;
4174;SDS011;2101;48.290;14.382;2022-10-16T03:07:39;16.43;;;2.60;;
4174;SDS011;2101;48.290;14.382;2022-10-16T03:10:05;19.73;;;3.10;;
4174;SDS011;2101;48.290;14.382;2022-10-16T03:12:31;17.30;;;2.77;;
4174;SDS011;2101;48.290;14.382;2022-10-16T03:14:57;16.20;;;2.70;;
4174;SDS011;2101;48.290;14.382;2022-10-16T03:17:24;18.00;;;3.23;;
4174;SDS011;2101;48.290;14.382;2022-10-16T03:19:50;16.80;;;2.77;;
4174;SDS011;2101;48.290;14.382;2022-10-16T03:22:16;17.43;;;2.67;;
4174;SDS011;2101;48.290;14.382;2022-10-16T03:24:42;20.00;;;3.60;;
4174;SDS011;2101;48.290;14.382;2022-10-16T03:27:08;16.53;;;2.87;;
4174;SDS011;2101;48.290;14.382;2022-10-16T03:29:35;18.17;;;4.00;;
4174;SDS011;2101;48.290;14.382;2022-10-16T03:32:01;16.30;;;3.10;;
4174;SDS011;2101;48.290;14.382;2022-10-16T03:34:27;20.20;;;3.83;;
4174;SDS011;2101;48.290;14.382;2022-10-16T03:36:53;25.30;;;4.00;;
4174;SDS011;2101;48.290;14.382;2022-10-16T03:39:19;30.60;;;3.53;;
4174;SDS011;2101;48.290;14.382;2022-10-16T03:41:45;22.40;;;3.50;;
4174;SDS011;2101;48.290;14.382;2022-10-16T03:44:12;17.87;;;3.23;;
4174;SDS011;2101;48.290;14.382;2022-10-16T03:46:38;18.30;;;3.13;;
4174;SDS011;2101;48.290;14.382;2022-10-16T03:49:25;16.80;;;2.90;;
4174;SDS011;2101;48.290;14.382;2022-10-16T03:51:53;23.87;;;3.70;;
4174;SDS011;2101;48.290;14.382;2022-10-16T03:54:19;19.40;;;3.30;;
4174;SDS011;2101;48.290;14.382;2022-10-16T03:56:45;22.77;;;3.23;;
4174;SDS011;2101;48.290;14.382;2022-10-16T03:59:11;25.57;;;3.30;;
4174;SDS011;2101;48.290;14.382;2022-10-16T04:01:37;18.87;;;3.77;;
4174;SDS011;2101;48.290;14.382;2022-10-16T04:04:03;20.60;;;2.97;;
4174;SDS011;2101;48.290;14.382;2022-10-16T04:06:29;17.63;;;2.80;;
4174;SDS011;2101;48.290;14.382;2022-10-16T04:08:55;16.27;;;2.70;;
4174;SDS011;2101;48.290;14.382;2022-10-16T04:11:21;16.47;;;2.57;;
4174;SDS011;2101;48.290;14.382;2022-10-16T04:13:47;15.83;;;2.53;;
4174;SDS011;2101;48.290;14.382;2022-10-16T04:16:13;18.33;;;2.80;;
4174;SDS011;2101;48.290;14.382;2022-10-16T04:18:40;21.20;;;3.63;;
4174;SDS011;2101;48.290;14.382;2022-10-16T04:21:06;18.13;;;2.70;;
4174;SDS011;2101;48.290;14.382;2022-10-16T04:23:32;14.83;;;1.87;;
4174;SDS011;2101;48.290;14.382;2022-10-16T04:25:59;16.87;;;2.50;;
4174;SDS011;2101;48.290;14.382;2022-10-16T04:28:25;15.90;;;2.60;;
4174;SDS011;2101;48.290;14.382;2022-10-16T04:30:51;14.50;;;1.93;;
4174;SDS011;2101;48.290;14.382;2022-10-16T04:33:17;14.80;;;2.30;;
4174;SDS011;2101;48.290;14.382;2022-10-16T04:35:44;16.73;;;2.63;;
4174;SDS011;2101;48.290;14.382;2022-10-16T04:38:10;15.47;;;2.80;;
4174;SDS011;2101;48.290;14.382;2022-10-16T04:40:36;15.93;;;2.70;;
4174;SDS011;2101;48.290;14.382;2022-10-16T04:43:02;24.60;;;3.77;;
4174;SDS011;2101;48.290;14.382;2022-10-16T04:45:29;91.47;;;5.93;;
4174;SDS011;2101;48.290;14.382;2022-10-16T04:47:58;209.63;;;8.03;;
4174;SDS011;2101;48.290;14.382;2022-10-16T04:50:25;26.93;;;2.70;;
4174;SDS011;2101;48.290;14.382;2022-10-16T04:52:51;16.50;;;2.87;;
4174;SDS011;2101;48.290;14.382;2022-10-16T04:55:17;19.67;;;2.70;;
4174;SDS011;2101;48.290;14.382;2022-10-16T04:57:43;33.23;;;3.23;;
4174;SDS011;2101;48.290;14.382;2022-10-16T05:00:09;16.47;;;2.57;;
4174;SDS011;2101;48.290;14.382;2022-10-16T05:02:36;19.90;;;2.63;;
4174;SDS011;2101;48.290;14.382;2022-10-16T05:05:02;24.23;;;2.50;;
4174;SDS011;2101;48.290;14.382;2022-10-16T05:07:28;17.87;;;3.13;;
4174;SDS011;2101;48.290;14.382;2022-10-16T05:09:54;22.33;;;2.87;;
4174;SDS011;2101;48.290;14.382;2022-10-16T05:12:20;17.70;;;3.30;;
4174;SDS011;2101;48.290;14.382;2022-10-16T05:14:46;16.27;;;2.90;;
4174;SDS011;2101;48.290;14.382;2022-10-16T05:17:13;18.83;;;3.40;;
4174;SDS011;2101;48.290;14.382;2022-10-16T05:19:39;17.97;;;3.50;;
4174;SDS011;2101;48.290;14.382;2022-10-16T05:22:05;17.80;;;3.33;;
4174;SDS011;2101;48.290;14.382;2022-10-16T05:24:31;16.20;;;2.50;;
4174;SDS011;2101;48.290;14.382;2022-10-16T05:26:57;17.23;;;2.77;;
4174;SDS011;2101;48.290;14.382;2022-10-16T05:29:23;15.40;;;2.30;;
4174;SDS011;2101;48.290;14.382;2022-10-16T05:31:50;16.23;;;2.50;;
4174;SDS011;2101;48.290;14.382;2022-10-16T05:34:17;15.63;;;2.20;;
4174;SDS011;2101;48.290;14.382;2022-10-16T05:36:43;14.60;;;2.27;;
4174;SDS011;2101;48.290;14.382;2022-10-16T05:39:10;15.00;;;2.00;;
4174;SDS011;2101;48.290;14.382;2022-10-16T05:41:37;14.13;;;2.03;;
4174;SDS011;2101;48.290;14.382;2022-10-16T05:44:06;17.40;;;2.53;;
4174;SDS011;2101;48.290;14.382;2022-10-16T05:46:32;14.90;;;2.00;;
4174;SDS011;2101;48.290;14.382;2022-10-16T05:48:58;21.23;;;2.70;;
4174;SDS011;2101;48.290;14.382;2022-10-16T05:51:25;16.20;;;2.20;;
4174;SDS011;2101;48.290;14.382;2022-10-16T05:53:51;21.80;;;2.30;;
4174;SDS011;2101;48.290;14.382;2022-10-16T05:56:17;14.83;;;2.20;;
4174;SDS011;2101;48.290;14.382;2022-10-16T05:58:44;16.87;;;2.60;;
4174;SDS011;2101;48.290;14.382;2022-10-16T06:01:11;15.43;;;2.77;;
4174;SDS011;2101;48.290;14.382;2022-10-16T06:03:37;24.90;;;2.10;;
4174;SDS011;2101;48.290;14.382;2022-10-16T06:06:13;17.00;;;2.37;;
4174;SDS011;2101;48.290;14.382;2022-10-16T06:08:41;17.90;;;2.57;;
4174;SDS011;2101;48.290;14.382;2022-10-16T06:11:08;16.73;;;2.27;;
4174;SDS011;2101;48.290;14.382;2022-10-16T06:13:35;30.43;;;2.60;;
4174;SDS011;2101;48.290;14.382;2022-10-16T06:16:01;21.93;;;2.70;;
4174;SDS011;2101;48.290;14.382;2022-10-16T06:18:28;15.77;;;2.60;;
4174;SDS011;2101;48.290;14.382;2022-10-16T06:20:55;20.53;;;2.93;;
4174;SDS011;2101;48.290;14.382;2022-10-16T06:23:21;15.00;;;2.30;;
4174;SDS011;2101;48.290;14.382;2022-10-16T06:25:47;17.00;;;2.90;;
4174;SDS011;2101;48.290;14.382;2022-10-16T06:28:14;17.70;;;3.30;;
4174;SDS011;2101;48.290;14.382;2022-10-16T06:30:40;15.83;;;2.30;;
4174;SDS011;2101;48.290;14.382;2022-10-16T06:33:08;16.30;;;2.77;;
4174;SDS011;2101;48.290;14.382;2022-10-16T06:35:35;16.97;;;2.93;;
4174;SDS011;2101;48.290;14.382;2022-10-16T06:38:01;15.67;;;2.70;;
4174;SDS011;2101;48.290;14.382;2022-10-16T06:40:27;15.70;;;2.50;;
4174;SDS011;2101;48.290;14.382;2022-10-16T06:42:56;17.67;;;2.57;;
4174;SDS011;2101;48.290;14.382;2022-10-16T06:45:22;14.10;;;2.17;;
4174;SDS011;2101;48.290;14.382;2022-10-16T06:47:48;19.33;;;2.83;;
4174;SDS011;2101;48.290;14.382;2022-10-16T06:50:14;15.03;;;2.40;;
4174;SDS011;2101;48.290;14.382;2022-10-16T06:52:40;14.07;;;2.03;;
4174;SDS011;2101;48.290;14.382;2022-10-16T06:55:07;14.70;;;2.00;;
4174;SDS011;2101;48.290;14.382;2022-10-16T06:57:33;14.83;;;2.30;;
4174;SDS011;2101;48.290;14.382;2022-10-16T06:59:59;14.40;;;1.77;;
4174;SDS011;2101;48.290;14.382;2022-10-16T07:02:28;13.90;;;1.67;;
4174;SDS011;2101;48.290;14.382;2022-10-16T07:04:54;13.73;;;1.63;;
4174;SDS011;2101;48.290;14.382;2022-10-16T07:07:21;14.00;;;1.33;;
4174;SDS011;2101;48.290;14.382;2022-10-16T07:09:49;13.70;;;1.57;;
4174;SDS011;2101;48.290;14.382;2022-10-16T07:12:15;18.20;;;1.63;;
4174;SDS011;2101;48.290;14.382;2022-10-16T07:14:42;13.80;;;1.43;;
4174;SDS011;2101;48.290;14.382;2022-10-16T07:17:08;14.93;;;1.10;;
4174;SDS011;2101;48.290;14.382;2022-10-16T07:19:34;13.60;;;1.33;;
4174;SDS011;2101;48.290;14.382;2022-10-16T07:22:00;13.50;;;1.20;;
4174;SDS011;2101;48.290;14.382;2022-10-16T07:24:28;13.20;;;1.10;;
4174;SDS011;2101;48.290;14.382;2022-10-16T07:26:59;16.10;;;2.30;;
4174;SDS011;2101;48.290;14.382;2022-10-16T07:29:25;13.63;;;1.87;;
4174;SDS011;2101;48.290;14.382;2022-10-16T07:31:52;13.30;;;1.37;;
4174;SDS011;2101;48.290;14.382;2022-10-16T07:34:18;22.53;;;1.37;;
4174;SDS011;2101;48.290;14.382;2022-10-16T07:36:49;17.40;;;1.43;;
4174;SDS011;2101;48.290;14.382;2022-10-16T07:39:16;20.83;;;1.60;;
4174;SDS011;2101;48.290;14.382;2022-10-16T07:41:47;15.70;;;2.03;;
4174;SDS011;2101;48.290;14.382;2022-10-16T07:44:16;14.77;;;1.57;;
4174;SDS011;2101;48.290;14.382;2022-10-16T07:46:42;13.27;;;1.33;;
4174;SDS011;2101;48.290;14.382;2022-10-16T07:49:08;18.93;;;1.47;;
4174;SDS011;2101;48.290;14.382;2022-10-16T07:51:34;14.40;;;1.47;;
4174;SDS011;2101;48.290;14.382;2022-10-16T07:54:01;15.50;;;1.70;;
4174;SDS011;2101;48.290;14.382;2022-10-16T07:56:27;13.80;;;1.50;;
4174;SDS011;2101;48.290;14.382;2022-10-16T07:58:53;13.60;;;1.43;;
4174;SDS011;2101;48.290;14.382;2022-10-16T08:01:22;15.33;;;1.60;;
4174;SDS011;2101;48.290;14.382;2022-10-16T08:03:49;14.40;;;1.80;;
4174;SDS011;2101;48.290;14.382;2022-10-16T08:06:19;17.23;;;2.03;;
4174;SDS011;2101;48.290;14.382;2022-10-16T08:08:45;17.20;;;2.23;;
4174;SDS011;2101;48.290;14.382;2022-10-16T08:11:12;13.63;;;1.30;;
4174;SDS011;2101;48.290;14.382;2022-10-16T08:13:42;15.70;;;1.47;;
4174;SDS011;2101;48.290;14.382;2022-10-16T08:16:09;14.40;;;1.53;;
4174;SDS011;2101;48.290;14.382;2022-10-16T08:18:36;13.90;;;1.30;;
4174;SDS011;2101;48.290;14.382;2022-10-16T08:21:03;15.30;;;1.60;;
4174;SDS011;2101;48.290;14.382;2022-10-16T08:23:32;18.57;;;2.40;;
4174;SDS011;2101;48.290;14.382;2022-10-16T08:26:01;15.03;;;2.07;;
4174;SDS011;2101;48.290;14.382;2022-10-16T08:28:28;14.23;;;1.67;;
4174;SDS011;2101;48.290;14.382;2022-10-16T08:30:54;13.27;;;1.30;;
4174;SDS011;2101;48.290;14.382;2022-10-16T08:33:22;15.33;;;1.93;;
4174;SDS011;2101;48.290;14.382;2022-10-16T08:35:51;13.67;;;1.40;;
4174;SDS011;2101;48.290;14.382;2022-10-16T08:38:18;15.30;;;1.73;;
4174;SDS011;2101;48.290;14.382;2022-10-16T08:40:44;14.40;;;1.70;;
4174;SDS011;2101;48.290;14.382;2022-10-16T08:51:04;14.37;;;1.70;;
4174;SDS011;2101;48.290;14.382;2022-10-16T08:53:46;15.20;;;2.23;;
4174;SDS011;2101;48.290;14.382;2022-10-16T08:56:14;14.87;;;1.60;;
4174;SDS011;2101;48.290;14.382;2022-10-16T08:58:41;15.80;;;1.60;;
4174;SDS011;2101;48.290;14.382;2022-10-16T09:01:11;13.43;;;1.50;;
4174;SDS011;2101;48.290;14.382;2022-10-16T09:11:18;14.70;;;1.63;;
4174;SDS011;2101;48.290;14.382;2022-10-16T09:16:19;16.60;;;1.60;;
4174;SDS011;2101;48.290;14.382;2022-10-16T09:21:29;13.20;;;1.27;;
4174;SDS011;2101;48.290;14.382;2022-10-16T09:24:14;14.07;;;1.77;;
4174;SDS011;2101;48.290;14.382;2022-10-16T09:26:41;13.50;;;1.50;;
4174;SDS011;2101;48.290;14.382;2022-10-16T09:29:14;15.93;;;1.90;;
4174;SDS011;2101;48.290;14.382;2022-10-16T09:31:41;14.73;;;1.50;;
4174;SDS011;2101;48.290;14.382;2022-10-16T09:34:16;18.70;;;1.50;;
4174;SDS011;2101;48.290;14.382;2022-10-16T09:36:44;14.27;;;1.70;;
4174;SDS011;2101;48.290;14.382;2022-10-16T09:39:10;14.87;;;2.00;;
4174;SDS011;2101;48.290;14.382;2022-10-16T09:41:38;14.03;;;1.70;;
4174;SDS011;2101;48.290;14.382;2022-10-16T09:44:06;13.67;;;1.50;;
4174;SDS011;2101;48.290;14.382;2022-10-16T09:46:41;16.87;;;2.00;;
4174;SDS011;2101;48.290;14.382;2022-10-16T09:49:24;15.23;;;2.00;;
4174;SDS011;2101;48.290;14.382;2022-10-16T09:51:51;14.07;;;1.70;;
4174;SDS011;2101;48.290;14.382;2022-10-16T09:54:19;13.97;;;1.63;;
4174;SDS011;2101;48.290;14.382;2022-10-16T09:56:46;15.20;;;1.70;;
4174;SDS011;2101;48.290;14.382;2022-10-16T09:59:19;14.40;;;1.50;;
4174;SDS011;2101;48.290;14.382;2022-10-16T10:01:52;13.60;;;1.40;;
4174;SDS011;2101;48.290;14.382;2022-10-16T10:04:19;14.93;;;1.53;;
4174;SDS011;2101;48.290;14.382;2022-10-16T10:06:49;14.20;;;1.70;;
4174;SDS011;2101;48.290;14.382;2022-10-16T10:11:55;14.70;;;1.90;;
4174;SDS011;2101;48.290;14.382;2022-10-16T10:22:24;15.67;;;1.70;;
4174;SDS011;2101;48.290;14.382;2022-10-16T10:40:29;13.60;;;1.33;;
4174;SDS011;2101;48.290;14.382;2022-10-16T10:45:47;17.43;;;1.60;;
4174;SDS011;2101;48.290;14.382;2022-10-16T10:48:17;15.10;;;1.40;;
4174;SDS011;2101;48.290;14.382;2022-10-16T10:50:49;19.10;;;1.47;;
4174;SDS011;2101;48.290;14.382;2022-10-16T10:53:21;14.33;;;1.40;;
4174;SDS011;2101;48.290;14.382;2022-10-16T11:05:42;13.50;;;1.23;;
4174;SDS011;2101;48.290;14.382;2022-10-16T11:08:19;16.60;;;1.60;;
4174;SDS011;2101;48.290;14.382;2022-10-16T11:13:20;15.03;;;1.53;;
4174;SDS011;2101;48.290;14.382;2022-10-16T11:15:50;16.57;;;1.20;;
4174;SDS011;2101;48.290;14.382;2022-10-16T11:21:07;13.20;;;1.40;;
4174;SDS011;2101;48.290;14.382;2022-10-16T11:23:37;14.90;;;1.40;;
4174;SDS011;2101;48.290;14.382;2022-10-16T11:26:09;14.90;;;1.73;;
4174;SDS011;2101;48.290;14.382;2022-10-16T11:29:12;13.80;;;1.33;;
4174;SDS011;2101;48.290;14.382;2022-10-16T11:31:41;17.50;;;1.73;;
4174;SDS011;2101;48.290;14.382;2022-10-16T11:34:13;24.80;;;1.70;;
4174;SDS011;2101;48.290;14.382;2022-10-16T11:39:18;16.23;;;1.57;;
4174;SDS011;2101;48.290;14.382;2022-10-16T11:44:14;13.60;;;1.30;;
4174;SDS011;2101;48.290;14.382;2022-10-16T11:46:43;13.20;;;1.10;;
4174;SDS011;2101;48.290;14.382;2022-10-16T11:49:24;13.73;;;1.23;;
4174;SDS011;2101;48.290;14.382;2022-10-16T11:51:57;15.00;;;1.50;;
4174;SDS011;2101;48.290;14.382;2022-10-16T11:56:55;13.37;;;1.30;;
4174;SDS011;2101;48.290;14.382;2022-10-16T11:59:27;14.53;;;1.27;;
4174;SDS011;2101;48.290;14.382;2022-10-16T12:02:15;13.13;;;0.97;;
4174;SDS011;2101;48.290;14.382;2022-10-16T12:04:43;15.40;;;1.70;;
4174;SDS011;2101;48.290;14.382;2022-10-16T12:07:14;14.10;;;1.43;;
4174;SDS011;2101;48.290;14.382;2022-10-16T12:09:41;13.40;;;1.40;;
4174;SDS011;2101;48.290;14.382;2022-10-16T12:12:27;17.13;;;1.03;;
4174;SDS011;2101;48.290;14.382;2022-10-16T12:15:15;28.90;;;1.43;;
4174;SDS011;2101;48.290;14.382;2022-10-16T12:17:43;14.33;;;1.37;;
4174;SDS011;2101;48.290;14.382;2022-10-16T12:22:47;17.00;;;1.10;;
4174;SDS011;2101;48.290;14.382;2022-10-16T12:25:33;16.50;;;0.93;;
4174;SDS011;2101;48.290;14.382;2022-10-16T12:28:04;13.60;;;1.10;;
4174;SDS011;2101;48.290;14.382;2022-10-16T12:30:35;16.13;;;1.10;;
4174;SDS011;2101;48.290;14.382;2022-10-16T12:33:03;13.27;;;0.87;;
4174;SDS011;2101;48.290;14.382;2022-10-16T12:35:30;13.47;;;1.00;;
4174;SDS011;2101;48.290;14.382;2022-10-16T12:38:07;12.50;;;0.80;;
4174;SDS011;2101;48.290;14.382;2022-10-16T12:40:35;13.50;;;1.23;;
4174;SDS011;2101;48.290;14.382;2022-10-16T12:45:46;13.00;;;0.93;;
4174;SDS011;2101;48.290;14.382;2022-10-16T12:48:20;13.50;;;1.13;;
4174;SDS011;2101;48.290;14.382;2022-10-16T12:50:46;13.40;;;1.00;;
4174;SDS011;2101;48.290;14.382;2022-10-16T12:53:23;21.90;;;1.80;;
4174;SDS011;2101;48.290;14.382;2022-10-16T13:01:16;16.80;;;1.00;;
4174;SDS011;2101;48.290;14.382;2022-10-16T13:06:39;12.90;;;0.83;;
4174;SDS011;2101;48.290;14.382;2022-10-16T13:09:15;13.60;;;1.10;;
4174;SDS011;2101;48.290;14.382;2022-10-16T13:14:20;14.57;;;1.23;;
4174;SDS011;2101;48.290;14.382;2022-10-16T13:24:40;14.90;;;0.97;;
4174;SDS011;2101;48.290;14.382;2022-10-16T13:29:34;13.50;;;1.07;;
4174;SDS011;2101;48.290;14.382;2022-10-16T13:32:00;13.10;;;0.80;;
4174;SDS011;2101;48.290;14.382;2022-10-16T13:34:27;12.87;;;0.73;;
4174;SDS011;2101;48.290;14.382;2022-10-16T13:36:53;12.70;;;0.70;;
4174;SDS011;2101;48.290;14.382;2022-10-16T13:39:27;13.20;;;0.90;;
4174;SDS011;2101;48.290;14.382;2022-10-16T13:42:13;12.57;;;0.80;;
4174;SDS011;2101;48.290;14.382;2022-10-16T13:44:42;14.00;;;1.10;;
4174;SDS011;2101;48.290;14.382;2022-10-16T13:47:19;23.93;;;0.97;;
4174;SDS011;2101;48.290;14.382;2022-10-16T13:49:46;13.33;;;0.77;;
4174;SDS011;2101;48.290;14.382;2022-10-16T13:52:18;15.37;;;0.90;;
4174;SDS011;2101;48.290;14.382;2022-10-16T13:54:45;13.23;;;0.90;;
4174;SDS011;2101;48.290;14.382;2022-10-16T13:57:14;13.10;;;0.90;;
4174;SDS011;2101;48.290;14.382;2022-10-16T13:59:41;13.40;;;1.03;;
4174;SDS011;2101;48.290;14.382;2022-10-16T14:02:21;13.10;;;1.00;;
4174;SDS011;2101;48.290;14.382;2022-10-16T14:04:48;13.00;;;0.90;;
4174;SDS011;2101;48.290;14.382;2022-10-16T14:07:24;12.80;;;0.70;;
4174;SDS011;2101;48.290;14.382;2022-10-16T14:09:51;13.10;;;0.80;;
4174;SDS011;2101;48.290;14.382;2022-10-16T14:12:18;12.63;;;0.70;;
4174;SDS011;2101;48.290;14.382;2022-10-16T14:14:45;14.53;;;0.83;;
4174;SDS011;2101;48.290;14.382;2022-10-16T14:19:44;13.00;;;0.83;;
4174;SDS011;2101;48.290;14.382;2022-10-16T14:25:01;26.10;;;1.90;;
4174;SDS011;2101;48.290;14.382;2022-10-16T14:27:29;53.70;;;1.60;;
4174;SDS011;2101;48.290;14.382;2022-10-16T14:30:11;15.57;;;0.70;;
4174;SDS011;2101;48.290;14.382;2022-10-16T14:32:39;13.50;;;0.70;;
4174;SDS011;2101;48.290;14.382;2022-10-16T14:35:21;12.80;;;0.67;;
4174;SDS011;2101;48.290;14.382;2022-10-16T14:37:51;13.10;;;0.80;;
4174;SDS011;2101;48.290;14.382;2022-10-16T14:40:17;13.07;;;0.73;;
4174;SDS011;2101;48.290;14.382;2022-10-16T14:42:44;13.43;;;0.87;;
4174;SDS011;2101;48.290;14.382;2022-10-16T14:45:11;14.90;;;0.90;;
4174;SDS011;2101;48.290;14.382;2022-10-16T14:47:37;12.93;;;0.90;;
4174;SDS011;2101;48.290;14.382;2022-10-16T14:50:13;13.70;;;0.80;;
4174;SDS011;2101;48.290;14.382;2022-10-16T14:52:39;13.03;;;0.80;;
4174;SDS011;2101;48.290;14.382;2022-10-16T14:55:06;19.83;;;1.03;;
4174;SDS011;2101;48.290;14.382;2022-10-16T14:57:33;13.23;;;0.97;;
4174;SDS011;2101;48.290;14.382;2022-10-16T15:00:00;13.17;;;0.90;;
4174;SDS011;2101;48.290;14.382;2022-10-16T15:02:31;13.73;;;1.03;;
4174;SDS011;2101;48.290;14.382;2022-10-16T15:04:57;13.13;;;0.90;;
4174;SDS011;2101;48.290;14.382;2022-10-16T15:07:24;12.77;;;0.80;;
4174;SDS011;2101;48.290;14.382;2022-10-16T15:09:50;13.10;;;0.80;;
4174;SDS011;2101;48.290;14.382;2022-10-16T15:12:16;13.07;;;0.70;;
4174;SDS011;2101;48.290;14.382;2022-10-16T15:14:42;13.00;;;0.80;;
4174;SDS011;2101;48.290;14.382;2022-10-16T15:17:09;14.40;;;1.10;;
4174;SDS011;2101;48.290;14.382;2022-10-16T15:19:36;19.33;;;0.90;;
4174;SDS011;2101;48.290;14.382;2022-10-16T15:22:02;13.40;;;0.70;;
4174;SDS011;2101;48.290;14.382;2022-10-16T15:24:28;13.20;;;0.90;;
4174;SDS011;2101;48.290;14.382;2022-10-16T15:26:54;14.60;;;1.30;;
4174;SDS011;2101;48.290;14.382;2022-10-16T15:29:20;13.00;;;0.90;;
4174;SDS011;2101;48.290;14.382;2022-10-16T15:31:46;13.40;;;1.00;;
4174;SDS011;2101;48.290;14.382;2022-10-16T15:34:12;17.70;;;3.00;;
4174;SDS011;2101;48.290;14.382;2022-10-16T15:36:39;19.60;;;3.47;;
4174;SDS011;2101;48.290;14.382;2022-10-16T15:39:15;14.60;;;1.43;;
4174;SDS011;2101;48.290;14.382;2022-10-16T15:41:42;21.53;;;3.77;;
4174;SDS011;2101;48.290;14.382;2022-10-16T15:44:08;14.50;;;1.13;;
4174;SDS011;2101;48.290;14.382;2022-10-16T15:46:35;13.87;;;0.90;;
4174;SDS011;2101;48.290;14.382;2022-10-16T15:49:02;13.50;;;0.80;;
4174;SDS011;2101;48.290;14.382;2022-10-16T15:51:28;13.13;;;0.80;;
4174;SDS011;2101;48.290;14.382;2022-10-16T15:53:55;13.70;;;0.80;;
4174;SDS011;2101;48.290;14.382;2022-10-16T15:56:22;13.17;;;0.80;;
4174;SDS011;2101;48.290;14.382;2022-10-16T15:58:50;14.73;;;1.37;;
4174;SDS011;2101;48.290;14.382;2022-10-16T16:01:16;13.90;;;1.07;;
4174;SDS011;2101;48.290;14.382;2022-10-16T16:03:42;15.03;;;1.70;;
4174;SDS011;2101;48.290;14.382;2022-10-16T16:06:10;13.03;;;0.87;;
4174;SDS011;2101;48.290;14.382;2022-10-16T16:08:36;13.07;;;0.80;;
4174;SDS011;2101;48.290;14.382;2022-10-16T16:11:04;14.70;;;1.20;;
4174;SDS011;2101;48.290;14.382;2022-10-16T16:13:31;15.00;;;1.10;;
4174;SDS011;2101;48.290;14.382;2022-10-16T16:15:57;13.17;;;0.80;;
4174;SDS011;2101;48.290;14.382;2022-10-16T16:18:23;14.20;;;1.07;;
4174;SDS011;2101;48.290;14.382;2022-10-16T16:20:50;13.50;;;0.83;;
4174;SDS011;2101;48.290;14.382;2022-10-16T16:23:16;15.23;;;0.93;;
4174;SDS011;2101;48.290;14.382;2022-10-16T16:25:44;13.20;;;0.90;;
4174;SDS011;2101;48.290;14.382;2022-10-16T16:28:10;13.40;;;0.93;;
4174;SDS011;2101;48.290;14.382;2022-10-16T16:30:39;13.60;;;0.90;;
4174;SDS011;2101;48.290;14.382;2022-10-16T16:33:06;14.03;;;1.13;;
4174;SDS011;2101;48.290;14.382;2022-10-16T16:35:32;53.63;;;15.30;;
4174;SDS011;2101;48.290;14.382;2022-10-16T16:37:58;24.67;;;7.40;;
4174;SDS011;2101;48.290;14.382;2022-10-16T16:40:24;37.37;;;2.27;;
4174;SDS011;2101;48.290;14.382;2022-10-16T16:42:50;14.10;;;1.30;;
4174;SDS011;2101;48.290;14.382;2022-10-16T16:45:16;13.90;;;1.17;;
4174;SDS011;2101;48.290;14.382;2022-10-16T16:47:42;13.50;;;1.00;;
4174;SDS011;2101;48.290;14.382;2022-10-16T16:50:08;15.73;;;1.73;;
4174;SDS011;2101;48.290;14.382;2022-10-16T16:52:34;16.37;;;2.90;;